Spirit Of Tokyo — MCAI2 — position and weather

sailwx.info

Track history (hours):
 
Tides and Currents Weather Stations Pressure Air Temp Water Temp Dewpoint Dewpoint Depression Visibility Wind Speed Wind Dir Waves Ship Positions

Spirit Of Tokyo

Last reported at 2018-May-22 18:36 UTC. Time now 2018-May-25 01:31 UTC.
Position N 19°18' W 095°33'.

Length 210 m; draft 11.1 m.

Type: Cargo ship. MMSI: 232011803.

Date/timePositionNaut miles runAvg speedWind from/ knotsBaromVisibWave heightAir tempDewpointWater temp
2018-May-22 18:36N 19°18' W 095°33'219.5
2018-May-22 18:30N 19°17' W 095°34'1019.3
2018-May-22 18:00N 19°13' W 095°44'918.9
2018-May-22 17:30N 19°12' W 095°53'917.7
2018-May-22 17:00N 19°11' W 096°03'5 9.8
2018-May-22 16:30N 19°12' W 096°08'1 1.0
2018-May-22 15:59N 19°13' W 096°08'0 0.0
2018-May-22 15:29N 19°13' W 096°08'0 0.0
2018-May-22 14:59N 19°13' W 096°08'0 0.0
2018-May-22 14:29N 19°13' W 096°08'0 0.0
2018-May-22 13:59N 19°13' W 096°08'0 0.0
2018-May-22 13:29N 19°13' W 096°08'0 0.0
2018-May-22 12:59N 19°13' W 096°08'0 0.0
2018-May-22 12:29N 19°13' W 096°08'0 0.0
2018-May-22 11:59N 19°13' W 096°08'0 0.0
2018-May-22 11:29N 19°13' W 096°08'0 0.0
2018-May-22 10:53N 19°13' W 096°08'0 0.0
2018-May-22 10:29N 19°13' W 096°08'0 0.0
2018-May-22 09:59N 19°13' W 096°08'0 0.0
2018-May-22 09:29N 19°13' W 096°08'0 0.0
2018-May-22 08:59N 19°13' W 096°08'0 0.0
2018-May-22 08:29N 19°13' W 096°08'0 0.0
2018-May-22 07:59N 19°13' W 096°08'0 0.0
2018-May-22 07:29N 19°13' W 096°08'0 0.0
2018-May-22 06:56N 19°13' W 096°08'0 0.0
2018-May-22 06:26N 19°13' W 096°08'0 0.0
2018-May-22 05:53N 19°13' W 096°08'0 0.0
2018-May-22 05:29N 19°13' W 096°08'0 0.0
2018-May-22 04:59N 19°13' W 096°08'0 0.0
2018-May-22 04:29N 19°13' W 096°08'0 0.0
2018-May-22 03:59N 19°13' W 096°08'0 0.0
2018-May-22 03:29N 19°13' W 096°08'0 0.0
2018-May-22 02:59N 19°13' W 096°08'0 0.0
2018-May-22 02:29N 19°13' W 096°08'0 0.0
2018-May-22 01:59N 19°13' W 096°08'0 0.0
2018-May-22 01:29N 19°13' W 096°08'0 0.0
2018-May-22 00:59N 19°13' W 096°08'0 0.0
2018-May-22 00:29N 19°13' W 096°08'0 0.0
2018-May-21 23:56N 19°13' W 096°08'0 0.0
2018-May-21 23:29N 19°13' W 096°08'0 0.0
2018-May-21 22:59N 19°13' W 096°08'0 0.0
2018-May-21 22:29N 19°13' W 096°08'0 0.0
2018-May-21 21:59N 19°13' W 096°08'0 1.0
2018-May-21 21:30N 19°12' W 096°08'4 8.1
2018-May-21 21:00N 19°11' W 096°04'5 9.4
2018-May-21 20:30N 19°13' W 095°59'3 6.9
2018-May-21 20:00N 19°15' W 095°56'1 1.2
2018-May-21 19:30N 19°16' W 095°56'0 1.0
2018-May-21 19:00N 19°16' W 095°55'0 0.8
2018-May-21 18:30N 19°16' W 095°55'0 0.6
2018-May-21 18:00N 19°16' W 095°55'0 0.5
2018-May-21 17:30N 19°17' W 095°55'0 0.9
2018-May-21 17:00N 19°17' W 095°54'1 1.4
2018-May-21 16:30N 19°17' W 095°53'0 1.0
2018-May-21 16:00N 19°17' W 095°53'0 0.8
2018-May-21 15:30N 19°17' W 095°53'0 1.0
2018-May-21 15:00N 19°17' W 095°52'2 4.2
2018-May-21 14:30N 19°14' W 095°52'612.6
2018-May-21 14:00N 19°15' W 095°45'29813.0
2018-May-20 15:02N 21°26' W 091°01'218.2
2018-May-20 14:56N 21°27' W 090°59'1618.2
2018-May-20 14:03N 21°34' W 090°43'118.3
2018-May-20 14:01N 21°34' W 090°43'918.2
2018-May-20 13:30N 21°38' W 090°34'918.1
2018-May-20 13:00N 21°42' W 090°25'1218.1
2018-May-20 12:20N 21°47' W 090°13'618.1
2018-May-20 12:00N 21°49' W 090°07'1018.1
2018-May-20 11:28N 21°53' W 089°58'918.2
2018-May-20 11:00N 21°56' W 089°49'918.1
2018-May-20 10:29N 22°00' W 089°40'1018.1
2018-May-20 09:56N 22°04' W 089°30'918.5
2018-May-20 09:25N 22°06' W 089°20'818.5
2018-May-20 08:58N 22°08' W 089°11'  
2018-May-18 01:30N 10°23' W 075°50'918.5
2018-May-18 01:00N 10°20' W 075°41'612.5
2018-May-18 00:30N 10°19' W 075°35'510.0
2018-May-18 00:00N 10°24' W 075°32'1 1.5
2018-May-17 23:28N 10°24' W 075°32'0 0.0
2018-May-17 22:58N 10°24' W 075°32'0 0.0
2018-May-17 22:28N 10°24' W 075°32'0 0.0
2018-May-17 21:58N 10°24' W 075°32'0 0.0
2018-May-17 21:28N 10°24' W 075°32'0 0.0
2018-May-17 20:58N 10°24' W 075°32'0 0.0
2018-May-17 20:28N 10°24' W 075°32'0 0.0
2018-May-17 19:46N 10°24' W 075°32'0 0.0
2018-May-17 19:28N 10°24' W 075°32'0 0.0
2018-May-17 18:58N 10°24' W 075°32'0 0.0
2018-May-17 18:28N 10°24' W 075°32'0 0.0
2018-May-17 17:58N 10°24' W 075°32'0 0.0
2018-May-17 17:28N 10°24' W 075°32'0 0.0
2018-May-17 16:58N 10°24' W 075°32'0 0.0
2018-May-17 16:28N 10°24' W 075°32'0 0.0
2018-May-17 15:58N 10°24' W 075°32'0 0.0
2018-May-17 15:28N 10°24' W 075°32'0 0.0
2018-May-17 14:58N 10°24' W 075°32'0 0.0
2018-May-17 14:28N 10°24' W 075°32'0 0.0
2018-May-17 13:58N 10°24' W 075°32'0 0.0
2018-May-17 13:28N 10°24' W 075°32'0 0.0
2018-May-17 12:58N 10°24' W 075°32'0 0.0
2018-May-17 12:28N 10°24' W 075°32'0 0.0
2018-May-17 11:58N 10°24' W 075°32'0 0.1
2018-May-17 11:28N 10°24' W 075°32'0 0.1
2018-May-17 10:58N 10°24' W 075°32'0 0.0
2018-May-17 10:22N 10°24' W 075°32'0 0.0
2018-May-17 09:52N 10°24' W 075°32'0 0.0
2018-May-17 09:28N 10°24' W 075°32'0 0.0
2018-May-17 08:58N 10°24' W 075°32'0 0.0
2018-May-17 08:28N 10°24' W 075°32'0 0.0
2018-May-17 07:58N 10°24' W 075°32'0 0.0
2018-May-17 07:28N 10°24' W 075°32'0 0.0
2018-May-17 07:00N 10°24' W 075°32'1 1.4
2018-May-17 06:30N 10°24' W 075°32'3 6.6
2018-May-17 06:00N 10°20' W 075°32'5 8.9
2018-May-17 05:30N 10°19' W 075°36'5 9.4
2018-May-17 04:59N 10°18' W 075°41'8 9.0
2018-May-17 04:04N 10°20' W 075°49'0 0.8
2018-May-17 03:51N 10°20' W 075°49'1 1.1
2018-May-17 03:21N 10°20' W 075°50'0 1.0
2018-May-17 02:57N 10°20' W 075°50'0 0.9
2018-May-17 02:30N 10°20' W 075°50'0 0.9
2018-May-17 01:58N 10°21' W 075°50'0 0.5
2018-May-17 01:30N 10°21' W 075°49'0 0.9
2018-May-17 01:00N 10°21' W 075°50'0 0.5
2018-May-17 00:13N 10°21' W 075°50'1 0.4
2018-May-16 22:16N 10°22' W 075°50'0 0.4
2018-May-16 21:40N 10°22' W 075°50'0 0.4
2018-May-16 21:24N 10°22' W 075°50'0 0.4
2018-May-16 21:00N 10°22' W 075°50'  
Track history (hours):
 
Tides and Currents Weather Stations Pressure Air Temp Water Temp Dewpoint Dewpoint Depression Visibility Wind Speed Wind Dir Waves Ship Positions

Spirit Of Tokyo

Last reported at 2018-May-22 18:36 UTC. Time now 2018-May-25 01:31 UTC.
Position N 19°18' W 095°33'.

Length 210 m; draft 11.1 m.

Type: Cargo ship. MMSI: 232011803.

Date/timePositionNaut miles runAvg speedWind from/ knotsBaromVisibWave heightAir tempDewpointWater temp
2018-May-22 18:36N 19°18' W 095°33'219.5
2018-May-22 18:30N 19°17' W 095°34'1019.3
2018-May-22 18:00N 19°13' W 095°44'918.9
2018-May-22 17:30N 19°12' W 095°53'917.7
2018-May-22 17:00N 19°11' W 096°03'5 9.8
2018-May-22 16:30N 19°12' W 096°08'1 1.0
2018-May-22 15:59N 19°13' W 096°08'0 0.0
2018-May-22 15:29N 19°13' W 096°08'0 0.0
2018-May-22 14:59N 19°13' W 096°08'0 0.0
2018-May-22 14:29N 19°13' W 096°08'0 0.0
2018-May-22 13:59N 19°13' W 096°08'0 0.0
2018-May-22 13:29N 19°13' W 096°08'0 0.0
2018-May-22 12:59N 19°13' W 096°08'0 0.0
2018-May-22 12:29N 19°13' W 096°08'0 0.0
2018-May-22 11:59N 19°13' W 096°08'0 0.0
2018-May-22 11:29N 19°13' W 096°08'0 0.0
2018-May-22 10:53N 19°13' W 096°08'0 0.0
2018-May-22 10:29N 19°13' W 096°08'0 0.0
2018-May-22 09:59N 19°13' W 096°08'0 0.0
2018-May-22 09:29N 19°13' W 096°08'0 0.0
2018-May-22 08:59N 19°13' W 096°08'0 0.0
2018-May-22 08:29N 19°13' W 096°08'0 0.0
2018-May-22 07:59N 19°13' W 096°08'0 0.0
2018-May-22 07:29N 19°13' W 096°08'0 0.0
2018-May-22 06:56N 19°13' W 096°08'0 0.0
2018-May-22 06:26N 19°13' W 096°08'0 0.0
2018-May-22 05:53N 19°13' W 096°08'0 0.0
2018-May-22 05:29N 19°13' W 096°08'0 0.0
2018-May-22 04:59N 19°13' W 096°08'0 0.0
2018-May-22 04:29N 19°13' W 096°08'0 0.0
2018-May-22 03:59N 19°13' W 096°08'0 0.0
2018-May-22 03:29N 19°13' W 096°08'0 0.0
2018-May-22 02:59N 19°13' W 096°08'0 0.0
2018-May-22 02:29N 19°13' W 096°08'0 0.0
2018-May-22 01:59N 19°13' W 096°08'0 0.0
2018-May-22 01:29N 19°13' W 096°08'0 0.0
2018-May-22 00:59N 19°13' W 096°08'0 0.0
2018-May-22 00:29N 19°13' W 096°08'0 0.0
2018-May-21 23:56N 19°13' W 096°08'0 0.0
2018-May-21 23:29N 19°13' W 096°08'0 0.0
2018-May-21 22:59N 19°13' W 096°08'0 0.0
2018-May-21 22:29N 19°13' W 096°08'0 0.0
2018-May-21 21:59N 19°13' W 096°08'0 1.0
2018-May-21 21:30N 19°12' W 096°08'4 8.1
2018-May-21 21:00N 19°11' W 096°04'5 9.4
2018-May-21 20:30N 19°13' W 095°59'3 6.9
2018-May-21 20:00N 19°15' W 095°56'1 1.2
2018-May-21 19:30N 19°16' W 095°56'0 1.0
2018-May-21 19:00N 19°16' W 095°55'0 0.8
2018-May-21 18:30N 19°16' W 095°55'0 0.6
2018-May-21 18:00N 19°16' W 095°55'0 0.5
2018-May-21 17:30N 19°17' W 095°55'0 0.9
2018-May-21 17:00N 19°17' W 095°54'1 1.4
2018-May-21 16:30N 19°17' W 095°53'0 1.0
2018-May-21 16:00N 19°17' W 095°53'0 0.8
2018-May-21 15:30N 19°17' W 095°53'0 1.0
2018-May-21 15:00N 19°17' W 095°52'2 4.2
2018-May-21 14:30N 19°14' W 095°52'612.6
2018-May-21 14:00N 19°15' W 095°45'29813.0
2018-May-20 15:02N 21°26' W 091°01'218.2
2018-May-20 14:56N 21°27' W 090°59'1618.2
2018-May-20 14:03N 21°34' W 090°43'118.3
2018-May-20 14:01N 21°34' W 090°43'918.2
2018-May-20 13:30N 21°38' W 090°34'918.1
2018-May-20 13:00N 21°42' W 090°25'1218.1
2018-May-20 12:20N 21°47' W 090°13'618.1
2018-May-20 12:00N 21°49' W 090°07'1018.1
2018-May-20 11:28N 21°53' W 089°58'918.2
2018-May-20 11:00N 21°56' W 089°49'918.1
2018-May-20 10:29N 22°00' W 089°40'1018.1
2018-May-20 09:56N 22°04' W 089°30'918.5
2018-May-20 09:25N 22°06' W 089°20'818.5
2018-May-20 08:58N 22°08' W 089°11'  
2018-May-18 01:30N 10°23' W 075°50'918.5
2018-May-18 01:00N 10°20' W 075°41'612.5
2018-May-18 00:30N 10°19' W 075°35'510.0
2018-May-18 00:00N 10°24' W 075°32'1 1.5
2018-May-17 23:28N 10°24' W 075°32'0 0.0
2018-May-17 22:58N 10°24' W 075°32'0 0.0
2018-May-17 22:28N 10°24' W 075°32'0 0.0
2018-May-17 21:58N 10°24' W 075°32'0 0.0
2018-May-17 21:28N 10°24' W 075°32'0 0.0
2018-May-17 20:58N 10°24' W 075°32'0 0.0
2018-May-17 20:28N 10°24' W 075°32'0 0.0
2018-May-17 19:46N 10°24' W 075°32'0 0.0
2018-May-17 19:28N 10°24' W 075°32'0 0.0
2018-May-17 18:58N 10°24' W 075°32'0 0.0
2018-May-17 18:28N 10°24' W 075°32'0 0.0
2018-May-17 17:58N 10°24' W 075°32'0 0.0
2018-May-17 17:28N 10°24' W 075°32'0 0.0
2018-May-17 16:58N 10°24' W 075°32'0 0.0
2018-May-17 16:28N 10°24' W 075°32'0 0.0
2018-May-17 15:58N 10°24' W 075°32'0 0.0
2018-May-17 15:28N 10°24' W 075°32'0 0.0
2018-May-17 14:58N 10°24' W 075°32'0 0.0
2018-May-17 14:28N 10°24' W 075°32'0 0.0
2018-May-17 13:58N 10°24' W 075°32'0 0.0
2018-May-17 13:28N 10°24' W 075°32'0 0.0
2018-May-17 12:58N 10°24' W 075°32'0 0.0
2018-May-17 12:28N 10°24' W 075°32'0 0.0
2018-May-17 11:58N 10°24' W 075°32'0 0.1
2018-May-17 11:28N 10°24' W 075°32'0 0.1
2018-May-17 10:58N 10°24' W 075°32'0 0.0
2018-May-17 10:22N 10°24' W 075°32'0 0.0
2018-May-17 09:52N 10°24' W 075°32'0 0.0
2018-May-17 09:28N 10°24' W 075°32'0 0.0
2018-May-17 08:58N 10°24' W 075°32'0 0.0
2018-May-17 08:28N 10°24' W 075°32'0 0.0
2018-May-17 07:58N 10°24' W 075°32'0 0.0
2018-May-17 07:28N 10°24' W 075°32'0 0.0
2018-May-17 07:00N 10°24' W 075°32'1 1.4
2018-May-17 06:30N 10°24' W 075°32'3 6.6
2018-May-17 06:00N 10°20' W 075°32'5 8.9
2018-May-17 05:30N 10°19' W 075°36'5 9.4
2018-May-17 04:59N 10°18' W 075°41'8 9.0
2018-May-17 04:04N 10°20' W 075°49'0 0.8
2018-May-17 03:51N 10°20' W 075°49'1 1.1
2018-May-17 03:21N 10°20' W 075°50'0 1.0
2018-May-17 02:57N 10°20' W 075°50'0 0.9
2018-May-17 02:30N 10°20' W 075°50'0 0.9
2018-May-17 01:58N 10°21' W 075°50'0 0.5
2018-May-17 01:30N 10°21' W 075°49'0 0.9
2018-May-17 01:00N 10°21' W 075°50'0 0.5
2018-May-17 00:13N 10°21' W 075°50'1 0.4
2018-May-16 22:16N 10°22' W 075°50'0 0.4
2018-May-16 21:40N 10°22' W 075°50'0 0.4
2018-May-16 21:24N 10°22' W 075°50'0 0.4
2018-May-16 21:00N 10°22' W 075°50'  

Dump ship's entire track history